Time;durP1;ratioP1;P1;durP2;ratioP2;P2;SDS_P1;SDS_P2;PMS_P1;PMS_P2;Temp;Humidity;BMP_temperature;BMP_pressure;BME280_temperature;BME280_humidity;BME280_pressure;Samples;Min_cycle;Max_cycle;Signal;HPM_P1;HPM_P2
2022/10/10 00:01:33;;;;;;;0.10;0.10;;;;;;;13.72;51.98;98119.59;8380550;28;20231;-80
2022/10/10 00:05:38;;;;;;;0.00;0.00;;;;;;;13.72;52.63;98121.34;8380504;28;20235;-80
2022/10/10 00:09:41;;;;;;;0.00;0.00;;;;;;;13.75;52.46;98126.41;8380518;28;20246;-80
2022/10/10 00:13:43;;;;;;;0.10;0.10;;;;;;;13.78;52.47;98119.25;8399017;28;20256;-80
2022/10/10 00:17:46;;;;;;;0.00;0.00;;;;;;;13.69;52.58;98114.56;8413594;28;20592;-80
2022/10/10 00:21:50;;;;;;;0.00;0.00;;;;;;;13.64;52.84;98116.56;8413209;28;20231;-79
2022/10/10 00:25:53;;;;;;;0.10;0.10;;;;;;;13.71;52.91;98111.84;8413222;28;20457;-79
2022/10/10 00:29:56;;;;;;;0.10;0.10;;;;;;;13.69;52.29;98109.34;8413003;28;20395;-79
2022/10/10 00:33:58;;;;;;;0.10;0.10;;;;;;;13.65;53.02;98113.88;8413223;28;20226;-79
2022/10/10 00:38:03;;;;;;;0.10;0.10;;;;;;;13.60;52.85;98097.69;8413253;28;20227;-81
2022/10/10 00:42:05;;;;;;;0.00;0.00;;;;;;;13.63;52.89;98102.72;8411478;28;20230;-79
2022/10/10 00:46:08;;;;;;;0.00;0.00;;;;;;;13.59;52.89;98102.97;8412510;28;20253;-79
2022/10/10 00:50:11;;;;;;;0.10;0.10;;;;;;;13.55;53.04;98101.44;8412521;28;20226;-79
2022/10/10 00:54:16;;;;;;;0.00;0.00;;;;;;;13.47;52.71;98092.28;8412521;28;20471;-79
2022/10/10 00:58:19;;;;;;;0.10;0.10;;;;;;;13.42;53.14;98098.66;8412291;28;20226;-79
2022/10/10 01:02:22;;;;;;;0.10;0.10;;;;;;;13.60;53.01;98104.66;8412375;28;20281;-79
2022/10/10 01:06:25;;;;;;;0.10;0.10;;;;;;;13.61;53.33;98103.72;8411996;28;20254;-79
2022/10/10 01:10:29;;;;;;;0.00;0.00;;;;;;;13.58;53.35;98103.91;8411784;28;20230;-78
2022/10/10 01:14:39;;;;;;;0.07;0.07;;;;;;;13.62;53.09;98092.38;8412419;28;20238;-79
2022/10/10 01:18:45;;;;;;;0.00;0.00;;;;;;;13.57;53.66;98084.81;8412040;28;20401;-80
2022/10/10 01:23:02;;;;;;;0.10;0.10;;;;;;;13.59;52.72;98089.94;8412082;28;20246;-80
2022/10/10 01:27:16;;;;;;;0.00;0.00;;;;;;;13.54;53.59;98091.97;8412016;28;20227;-79
2022/10/10 01:31:23;;;;;;;0.10;0.10;;;;;;;13.46;53.71;98094.97;8411554;28;20246;-79
2022/10/10 01:35:34;;;;;;;0.10;0.10;;;;;;;13.47;53.56;98086.25;8411491;28;20510;-78
2022/10/10 01:39:41;;;;;;;0.10;0.10;;;;;;;13.40;53.39;98085.75;8411707;28;20235;-79
2022/10/10 01:43:44;;;;;;;0.03;0.03;;;;;;;13.36;53.42;98084.22;8411550;28;20242;-79
2022/10/10 01:47:49;;;;;;;0.00;0.00;;;;;;;13.40;53.50;98084.91;8411593;28;20449;-80
2022/10/10 01:52:04;;;;;;;0.00;0.00;;;;;;;13.37;53.50;98080.72;8414602;28;20223;-79
2022/10/10 01:56:10;;;;;;;0.10;0.10;;;;;;;13.27;53.61;98084.72;8417778;28;20302;-79
2022/10/10 02:00:14;;;;;;;0.10;0.10;;;;;;;13.28;53.35;98076.81;8417739;28;20538;-80
2022/10/10 02:04:26;;;;;;;0.10;0.10;;;;;;;13.18;53.42;98072.19;8417057;28;20276;-79
2022/10/10 02:08:31;;;;;;;0.00;0.00;;;;;;;13.11;53.74;98069.91;8416877;28;20518;-79
2022/10/10 02:12:35;;;;;;;0.10;0.10;;;;;;;12.99;53.82;98064.53;8416856;28;20250;-79
2022/10/10 02:16:39;;;;;;;0.10;0.10;;;;;;;13.06;53.98;98058.91;8416554;28;20284;-79
2022/10/10 02:20:44;;;;;;;0.10;0.10;;;;;;;12.94;54.12;98058.72;8416845;28;20305;-79
2022/10/10 02:24:46;;;;;;;0.10;0.10;;;;;;;12.97;54.12;98051.59;8416906;28;20518;-79
2022/10/10 02:28:53;;;;;;;0.10;0.10;;;;;;;12.91;54.17;98052.75;8416564;28;20226;-80
2022/10/10 02:33:00;;;;;;;0.00;0.00;;;;;;;12.93;54.01;98050.09;8416525;28;20447;-79
2022/10/10 02:37:06;;;;;;;0.10;0.10;;;;;;;12.90;54.21;98051.06;8416635;28;20511;-80
2022/10/10 02:41:10;;;;;;;0.10;0.10;;;;;;;12.83;53.93;98047.13;8416264;28;20280;-80
2022/10/10 02:45:14;;;;;;;0.10;0.10;;;;;;;12.75;54.09;98051.03;8416015;28;20308;-79
2022/10/10 02:49:23;;;;;;;0.10;0.10;;;;;;;12.79;54.02;98039.56;8416132;28;20233;-79
2022/10/10 02:53:27;;;;;;;0.10;0.10;;;;;;;12.87;54.16;98047.78;8415512;28;20231;-79
2022/10/10 02:57:30;;;;;;;0.10;0.10;;;;;;;12.76;54.21;98048.38;8415944;28;20235;-80
2022/10/10 03:01:32;;;;;;;0.10;0.10;;;;;;;12.62;54.66;98048.22;8415165;28;20227;-79
2022/10/10 03:05:35;;;;;;;0.10;0.10;;;;;;;12.71;54.29;98039.97;8414820;28;20422;-79
2022/10/10 03:09:39;;;;;;;0.10;0.10;;;;;;;12.62;54.84;98040.44;8415638;28;20542;-79
2022/10/10 03:13:42;;;;;;;0.10;0.10;;;;;;;12.62;54.29;98037.84;8415395;28;20243;-80
2022/10/10 03:17:45;;;;;;;0.10;0.10;;;;;;;12.72;54.11;98044.25;8415380;28;20247;-79
2022/10/10 03:21:48;;;;;;;0.10;0.10;;;;;;;12.57;54.61;98038.09;8415111;28;20264;-79
2022/10/10 03:25:52;;;;;;;0.00;0.00;;;;;;;12.64;55.03;98041.19;8415006;28;20257;-79
2022/10/10 03:29:55;;;;;;;0.10;0.10;;;;;;;12.60;54.37;98039.69;8414893;28;20235;-79
2022/10/10 03:33:58;;;;;;;0.10;0.10;;;;;;;12.57;54.72;98034.66;8415189;28;20222;-79
2022/10/10 03:38:01;;;;;;;0.10;0.10;;;;;;;12.49;55.36;98029.84;8413834;28;20239;-79
2022/10/10 03:42:05;;;;;;;0.10;0.10;;;;;;;12.43;55.46;98031.00;8413609;28;20227;-78
2022/10/10 03:46:08;;;;;;;0.10;0.10;;;;;;;12.52;55.68;98029.69;8413622;28;20305;-79
2022/10/10 03:50:17;;;;;;;0.10;0.10;;;;;;;12.57;55.33;98032.88;8413358;28;20594;-79
2022/10/10 03:54:20;;;;;;;0.10;0.10;;;;;;;12.61;55.24;98030.97;8413503;28;20541;-79
2022/10/10 03:58:24;;;;;;;0.10;0.10;;;;;;;12.48;55.12;98033.34;8413059;28;20238;-79
2022/10/10 04:02:27;;;;;;;0.10;0.10;;;;;;;12.55;55.33;98029.53;8412405;28;20235;-79
2022/10/10 04:06:30;;;;;;;0.10;0.10;;;;;;;12.50;55.08;98034.94;8412644;28;20277;-79
2022/10/10 04:10:32;;;;;;;0.10;0.10;;;;;;;12.60;55.13;98037.06;8412554;28;20369;-79
2022/10/10 04:14:37;;;;;;;0.10;0.10;;;;;;;12.59;54.77;98038.00;8412299;28;20250;-81
2022/10/10 04:18:40;;;;;;;0.10;0.10;;;;;;;12.55;55.13;98036.50;8412324;28;20234;-79
2022/10/10 04:22:42;;;;;;;0.10;0.10;;;;;;;12.55;55.37;98034.72;8412885;28;20453;-80
2022/10/10 04:26:45;;;;;;;0.00;0.00;;;;;;;12.56;55.24;98035.56;8412709;28;20243;-79
2022/10/10 04:30:49;;;;;;;0.07;0.07;;;;;;;12.39;55.74;98023.44;8412707;28;20222;-79
2022/10/10 04:34:52;;;;;;;0.10;0.10;;;;;;;12.43;55.86;98023.22;8412358;28;20502;-80
2022/10/10 04:38:55;;;;;;;0.10;0.10;;;;;;;12.44;56.13;98016.25;8412217;28;20250;-80
2022/10/10 04:42:57;;;;;;;0.10;0.10;;;;;;;12.38;56.15;98017.41;8412149;28;20226;-80
2022/10/10 04:47:01;;;;;;;0.10;0.10;;;;;;;12.46;56.12;98023.03;8411936;28;20272;-76
2022/10/10 04:51:04;;;;;;;0.10;0.10;;;;;;;12.38;56.28;98021.75;8411903;28;20227;-82
2022/10/10 04:55:07;;;;;;;0.10;0.10;;;;;;;12.37;56.24;98014.88;8411966;28;20242;-76
2022/10/10 04:59:10;;;;;;;0.10;0.10;;;;;;;12.26;56.67;98020.59;8412106;28;20268;-77
2022/10/10 05:03:14;;;;;;;0.10;0.10;;;;;;;12.34;56.62;98028.88;8412264;28;20230;-77
2022/10/10 05:07:17;;;;;;;0.10;0.10;;;;;;;12.33;56.47;98019.38;8411724;28;20277;-77
2022/10/10 05:11:19;;;;;;;0.10;0.10;;;;;;;12.39;56.14;98024.25;8411612;28;20230;-77
2022/10/10 05:15:23;;;;;;;0.10;0.10;;;;;;;12.31;56.50;98035.03;8411332;28;20254;-82
2022/10/10 05:19:27;;;;;;;0.10;0.10;;;;;;;12.28;56.22;98036.94;8410670;28;20246;-78
2022/10/10 05:23:30;;;;;;;0.10;0.10;;;;;;;12.30;56.69;98035.97;8411281;28;20287;-76
2022/10/10 05:27:33;;;;;;;0.10;0.10;;;;;;;12.30;56.83;98035.13;8415031;28;20333;-76
2022/10/10 05:31:36;;;;;;;0.10;0.10;;;;;;;12.21;56.81;98040.78;8417656;28;20227;-76
2022/10/10 05:35:40;;;;;;;0.10;0.10;;;;;;;12.14;57.37;98045.44;8417503;28;20241;-77
2022/10/10 05:39:43;;;;;;;0.10;0.10;;;;;;;12.21;56.89;98051.16;8417537;28;20231;-77
2022/10/10 05:43:46;;;;;;;0.10;0.10;;;;;;;12.24;56.86;98046.66;8417298;28;20418;-77
2022/10/10 05:47:48;;;;;;;0.10;0.10;;;;;;;12.23;56.76;98044.16;8417070;28;20226;-77
2022/10/10 05:51:52;;;;;;;0.10;0.10;;;;;;;12.20;57.37;98049.47;8416869;28;20230;-77
2022/10/10 05:55:55;;;;;;;0.10;0.10;;;;;;;12.17;57.46;98053.06;8416783;28;20322;-77
2022/10/10 05:59:58;;;;;;;0.10;0.10;;;;;;;12.17;57.22;98049.66;8416851;28;20251;-77
2022/10/10 06:04:01;;;;;;;0.10;0.10;;;;;;;12.24;57.05;98046.66;8416364;28;20396;-77
2022/10/10 06:08:05;;;;;;;0.10;0.10;;;;;;;12.43;56.50;98049.19;8416131;28;20540;-77
2022/10/10 06:12:14;;;;;;;0.10;0.10;;;;;;;12.33;57.12;98051.38;8416028;28;20234;-77
2022/10/10 06:16:17;;;;;;;0.10;0.10;;;;;;;12.40;56.45;98036.34;8416539;28;20340;-77
2022/10/10 06:20:19;;;;;;;0.10;0.10;;;;;;;12.50;56.65;98040.13;8416415;28;20248;-77
2022/10/10 06:24:24;;;;;;;0.10;0.10;;;;;;;12.46;57.10;98048.19;8416189;28;20230;-77
2022/10/10 06:28:26;;;;;;;0.10;0.10;;;;;;;12.47;56.69;98050.69;8415751;28;20227;-77
2022/10/10 06:32:29;;;;;;;0.10;0.10;;;;;;;12.56;56.90;98054.56;8415775;28;20412;-77
2022/10/10 06:36:32;;;;;;;0.10;0.10;;;;;;;12.97;55.85;98067.19;8415828;28;20242;-77
2022/10/10 06:40:36;;;;;;;0.10;0.10;;;;;;;13.09;55.97;98068.31;8415651;28;20231;-77
2022/10/10 06:44:39;;;;;;;0.10;0.10;;;;;;;13.38;55.34;98077.16;8405570;28;20233;-77
2022/10/10 06:48:42;;;;;;;0.10;0.10;;;;;;;13.52;54.71;98081.66;8415249;28;20246;-77
2022/10/10 06:52:44;;;;;;;0.10;0.10;;;;;;;13.72;54.75;98070.13;8415544;28;20527;-77
2022/10/10 06:56:48;;;;;;;0.10;0.10;;;;;;;13.75;54.84;98064.78;8414849;28;20406;-77
2022/10/10 07:00:52;;;;;;;0.10;0.10;;;;;;;13.81;54.62;98068.78;8415252;28;20517;-77
2022/10/10 07:04:55;;;;;;;0.10;0.10;;;;;;;13.61;55.09;98075.94;8414486;28;20238;-77
2022/10/10 07:08:58;;;;;;;0.10;0.10;;;;;;;13.67;54.82;98074.78;8414739;28;20242;-77
2022/10/10 07:13:02;;;;;;;0.10;0.10;;;;;;;13.46;55.71;98082.81;8414487;28;20264;-77
2022/10/10 07:17:05;;;;;;;0.10;0.10;;;;;;;13.21;55.62;98087.63;8414206;28;20222;-77
2022/10/10 07:21:08;;;;;;;0.10;0.10;;;;;;;13.46;55.45;98084.56;8414089;28;20234;-77
2022/10/10 07:25:11;;;;;;;0.10;0.10;;;;;;;13.89;54.46;98083.03;8414072;28;20245;-78
2022/10/10 07:29:15;;;;;;;0.10;0.10;;;;;;;13.88;54.82;98081.38;8414035;28;20473;-77
2022/10/10 07:33:18;;;;;;;0.10;0.10;;;;;;;14.20;53.76;98094.34;8413980;28;20269;-78
2022/10/10 07:37:21;;;;;;;0.10;0.10;;;;;;;14.23;53.67;98107.19;8414052;28;20239;-78
2022/10/10 07:41:24;;;;;;;0.10;0.10;;;;;;;14.59;52.98;98111.22;8413627;28;20238;-77
2022/10/10 07:45:28;;;;;;;0.10;0.10;;;;;;;14.42;53.80;98104.34;8412976;28;20234;-77
2022/10/10 07:49:31;;;;;;;0.10;0.10;;;;;;;14.73;53.46;98106.97;8413106;28;20235;-77
2022/10/10 07:53:33;;;;;;;0.10;0.10;;;;;;;14.54;54.10;98112.41;8413229;28;20251;-76
2022/10/10 07:57:37;;;;;;;0.10;0.10;;;;;;;15.14;52.61;98117.56;8413258;28;20242;-77
2022/10/10 08:01:41;;;;;;;0.10;0.10;;;;;;;15.76;50.77;98119.88;8413240;28;20238;-76
2022/10/10 08:05:45;;;;;;;0.07;0.07;;;;;;;16.14;50.17;98116.53;8413553;28;20245;-77
2022/10/10 08:09:48;;;;;;;0.00;0.00;;;;;;;15.67;52.15;98111.72;8413437;28;20237;-77
2022/10/10 08:13:51;;;;;;;0.10;0.10;;;;;;;16.35;51.04;98101.25;8413140;28;20230;-77
2022/10/10 08:17:55;;;;;;;0.00;0.00;;;;;;;16.70;49.59;98103.31;8413308;28;20516;-75
2022/10/10 08:21:59;;;;;;;0.00;0.00;;;;;;;17.54;47.78;98108.94;8413027;28;20546;-78
2022/10/10 08:26:03;;;;;;;0.00;0.00;;;;;;;18.29;46.71;98103.53;8412733;28;20425;-77
2022/10/10 08:30:07;;;;;;;0.00;0.00;;;;;;;18.89;45.25;98095.66;8412913;28;20237;-77
2022/10/10 08:34:11;;;;;;;0.00;0.00;;;;;;;19.39;44.14;98097.94;8412587;28;20522;-77
2022/10/10 08:38:13;;;;;;;0.00;0.00;;;;;;;19.78;43.38;98099.25;8412581;28;20233;-78
2022/10/10 08:42:20;;;;;;;0.00;0.00;;;;;;;19.87;43.08;98100.28;8412454;28;20237;-78
2022/10/10 08:46:30;;;;;;;0.00;0.00;;;;;;;19.12;44.83;98104.38;8411947;28;20553;-78
2022/10/10 08:50:38;;;;;;;0.00;0.00;;;;;;;19.16;48.27;98116.31;8411355;28;20242;-80
2022/10/10 08:54:41;;;;;;;0.00;0.00;;;;;;;19.74;46.51;98118.81;8411929;28;20235;-76
2022/10/10 08:58:49;;;;;;;0.00;0.00;;;;;;;19.91;43.99;98117.47;8412200;28;20250;-78
2022/10/10 09:02:55;;;;;;;0.00;0.00;;;;;;;19.53;44.53;98113.44;8417155;28;20228;-76
2022/10/10 09:07:07;;;;;;;0.00;0.00;;;;;;;18.16;47.78;98118.50;8419654;28;20248;-76
2022/10/10 09:11:19;;;;;;;0.00;0.00;;;;;;;18.94;46.83;98110.09;8419934;28;20397;-76
2022/10/10 09:15:24;;;;;;;0.00;0.00;;;;;;;19.68;45.13;98104.34;8420515;28;20251;-75
2022/10/10 09:19:44;;;;;;;0.00;0.00;;;;;;;19.72;45.06;98112.84;8419731;28;20222;-76
2022/10/10 09:23:53;;;;;;;0.00;0.00;;;;;;;19.73;45.27;98109.28;8418760;28;20233;-76
2022/10/10 09:28:00;;;;;;;0.00;0.00;;;;;;;19.21;46.85;98108.94;8419085;28;20272;-76
2022/10/10 09:32:08;;;;;;;0.00;0.00;;;;;;;19.48;46.11;98102.47;8419347;28;20542;-76
2022/10/10 09:36:14;;;;;;;0.00;0.00;;;;;;;18.54;48.75;98099.97;8419679;28;20231;-74
2022/10/10 09:40:24;;;;;;;0.00;0.00;;;;;;;19.02;47.90;98106.88;8418486;28;20549;-76
2022/10/10 09:44:27;;;;;;;0.00;0.00;;;;;;;19.20;48.09;98109.88;8418323;28;20232;-76
2022/10/10 09:48:33;;;;;;;0.00;0.00;;;;;;;19.09;48.13;98100.19;8419157;28;20429;-76
2022/10/10 09:52:35;;;;;;;0.00;0.00;;;;;;;18.85;48.62;98102.91;8418768;28;20231;-78
2022/10/10 09:56:42;;;;;;;0.00;0.00;;;;;;;19.31;48.41;98104.63;8419179;28;20232;-77
2022/10/10 10:00:45;;;;;;;0.00;0.00;;;;;;;19.17;48.92;98104.84;8419383;28;20288;-76
2022/10/10 10:04:49;;;;;;;0.00;0.00;;;;;;;19.35;48.64;98110.47;8419296;28;20231;-77
2022/10/10 10:08:53;;;;;;;0.00;0.00;;;;;;;19.38;49.29;98115.50;8418636;28;20235;-77
2022/10/10 10:12:57;;;;;;;0.00;0.00;;;;;;;19.40;48.38;98112.72;8418089;28;20284;-77
2022/10/10 10:17:06;;;;;;;0.00;0.00;;;;;;;19.32;48.97;98108.94;8418289;28;20222;-77
2022/10/10 10:21:14;;;;;;;0.00;0.00;;;;;;;19.52;48.78;98114.41;8418003;28;20247;-78
2022/10/10 10:25:31;;;;;;;0.00;0.00;;;;;;;19.57;49.58;98112.22;8417903;28;20233;-77
2022/10/10 10:29:35;;;;;;;0.00;0.00;;;;;;;19.87;48.28;98116.03;8417169;28;20240;-76
2022/10/10 10:33:45;;;;;;;0.00;0.00;;;;;;;19.86;48.78;98111.75;8417723;28;20238;-76
2022/10/10 10:38:01;;;;;;;0.00;0.00;;;;;;;19.64;48.91;98123.94;8417098;28;20227;-76
2022/10/10 10:42:12;;;;;;;0.00;0.00;;;;;;;19.66;48.83;98121.19;8417027;28;20228;-76
2022/10/10 10:46:26;;;;;;;0.00;0.00;;;;;;;19.75;49.08;98117.03;8416927;28;20249;-75
2022/10/10 10:50:38;;;;;;;0.00;0.00;;;;;;;20.73;47.73;98110.84;8417589;28;20234;-79
2022/10/10 10:54:52;;;;;;;0.00;0.00;;;;;;;20.37;47.85;98111.13;8417936;28;20232;-77
2022/10/10 10:59:10;;;;;;;0.00;0.00;;;;;;;20.74;47.37;98091.47;8416926;28;20228;-76
2022/10/10 11:03:47;;;;;;;0.00;0.00;;;;;;;21.27;46.52;98092.16;8416789;28;20256;-76
2022/10/10 11:08:26;;;;;;;0.00;0.00;;;;;;;21.37;46.24;98086.91;8418133;28;20301;-77
2022/10/10 11:12:44;;;;;;;0.00;0.00;;;;;;;21.73;45.22;98081.22;8416815;28;20241;-78
2022/10/10 11:16:51;;;;;;;0.00;0.00;;;;;;;21.40;46.18;98078.75;8417963;28;20229;-77
2022/10/10 11:20:59;;;;;;;0.00;0.00;;;;;;;21.74;45.89;98074.97;8417582;28;20264;-75
2022/10/10 11:25:06;;;;;;;0.00;0.00;;;;;;;21.85;45.10;98075.69;8415732;28;20237;-76
2022/10/10 11:29:11;;;;;;;0.00;0.00;;;;;;;21.79;45.74;98076.22;8415686;28;20234;-76
2022/10/10 11:33:16;;;;;;;0.00;0.00;;;;;;;21.92;45.19;98075.16;8415725;28;20255;-76
2022/10/10 11:37:26;;;;;;;0.00;0.00;;;;;;;21.92;45.12;98069.88;8416036;28;20233;-76
2022/10/10 11:41:33;;;;;;;0.00;0.00;;;;;;;21.54;46.13;98077.56;8415888;28;20355;-76
2022/10/10 11:45:43;;;;;;;0.00;0.00;;;;;;;21.21;47.19;98071.63;8416041;28;20375;-77
2022/10/10 11:49:49;;;;;;;0.00;0.00;;;;;;;21.49;45.69;98082.41;8416343;28;20437;-76
2022/10/10 11:53:57;;;;;;;0.00;0.00;;;;;;;21.62;45.68;98083.00;8415319;28;20326;-76
2022/10/10 11:58:23;;;;;;;0.00;0.00;;;;;;;21.59;46.79;98083.28;8415102;28;20238;-76
2022/10/10 12:02:32;;;;;;;0.00;0.00;;;;;;;21.93;46.00;98075.00;8414597;28;20238;-75
2022/10/10 12:06:38;;;;;;;0.00;0.00;;;;;;;21.32;47.48;98078.56;8413557;28;20234;-76
2022/10/10 12:10:46;;;;;;;0.00;0.00;;;;;;;21.07;47.89;98071.97;8413548;28;20242;-77
2022/10/10 12:14:53;;;;;;;0.00;0.00;;;;;;;20.63;49.05;98073.94;8413408;28;20528;-75
2022/10/10 12:19:01;;;;;;;0.00;0.00;;;;;;;20.62;49.34;98062.59;8413532;28;20234;-76
2022/10/10 12:23:19;;;;;;;0.00;0.00;;;;;;;20.87;49.61;98050.81;8413195;28;20223;-77
2022/10/10 12:27:43;;;;;;;0.00;0.00;;;;;;;20.73;49.52;98055.56;8413227;28;20429;-76
2022/10/10 12:31:46;;;;;;;0.00;0.00;;;;;;;20.78;50.06;98048.97;8413492;28;20239;-76
2022/10/10 12:35:48;;;;;;;0.00;0.00;;;;;;;20.66;50.38;98050.84;8413110;28;20230;-77
2022/10/10 12:40:17;;;;;;;0.00;0.00;;;;;;;20.56;50.76;98046.44;8413112;28;20379;-76
2022/10/10 12:44:22;;;;;;;0.00;0.00;;;;;;;20.67;50.34;98052.50;8412332;28;20482;-75
2022/10/10 12:48:25;;;;;;;0.00;0.00;;;;;;;20.94;49.93;98045.00;8412159;28;20434;-75
2022/10/10 12:52:31;;;;;;;0.00;0.00;;;;;;;20.86;50.31;98033.34;8412891;28;20511;-76
2022/10/10 12:56:39;;;;;;;0.00;0.00;;;;;;;20.89;50.57;98037.53;8412691;28;20530;-76
2022/10/10 13:00:45;;;;;;;0.00;0.00;;;;;;;20.88;50.87;98043.75;8412465;28;20264;-76
2022/10/10 13:04:49;;;;;;;0.00;0.00;;;;;;;20.74;50.69;98037.03;8412517;28;20293;-76
2022/10/10 13:08:52;;;;;;;0.00;0.00;;;;;;;20.96;50.66;98040.44;8412277;28;20238;-76
2022/10/10 13:13:03;;;;;;;0.00;0.00;;;;;;;21.33;49.93;98038.09;8412394;28;20229;-76
2022/10/10 13:17:21;;;;;;;0.00;0.00;;;;;;;20.65;51.36;98036.00;8412120;28;20237;-76
2022/10/10 13:21:26;;;;;;;0.00;0.00;;;;;;;20.25;52.38;98036.69;8412140;28;20271;-77
2022/10/10 13:25:29;;;;;;;0.00;0.00;;;;;;;20.10;53.63;98036.19;8411847;28;20234;-76
2022/10/10 13:29:35;;;;;;;0.00;0.00;;;;;;;20.22;53.50;98030.84;8412362;28;20326;-75
2022/10/10 13:33:40;;;;;;;0.00;0.00;;;;;;;20.73;52.43;98030.09;8412137;28;20230;-75
2022/10/10 13:37:45;;;;;;;0.00;0.00;;;;;;;21.74;50.05;98036.31;8411986;28;20301;-76
2022/10/10 13:41:48;;;;;;;0.00;0.00;;;;;;;21.66;49.55;98033.50;8411876;28;20230;-76
2022/10/10 13:45:56;;;;;;;0.00;0.00;;;;;;;21.85;49.27;98036.13;8411893;28;20230;-76
2022/10/10 13:50:01;;;;;;;0.00;0.00;;;;;;;21.61;50.04;98030.41;8418060;28;20249;-76
2022/10/10 13:54:04;;;;;;;0.00;0.00;;;;;;;22.33;47.83;98026.63;8418073;28;20417;-76
2022/10/10 13:58:08;;;;;;;0.00;0.00;;;;;;;21.42;50.93;98023.31;8417683;28;20279;-76
2022/10/10 14:02:14;;;;;;;0.00;0.00;;;;;;;22.09;48.67;98024.38;8417559;28;20232;-76
2022/10/10 14:06:19;;;;;;;0.00;0.00;;;;;;;22.09;48.72;98019.09;8417618;28;20233;-76
2022/10/10 14:10:24;;;;;;;0.00;0.00;;;;;;;21.62;50.28;98025.03;8417341;28;20231;-76
2022/10/10 14:14:34;;;;;;;0.00;0.00;;;;;;;22.47;49.25;98033.25;8417450;28;20235;-76
2022/10/10 14:18:37;;;;;;;0.00;0.00;;;;;;;22.58;48.09;98034.88;8417628;28;20301;-76
2022/10/10 14:22:41;;;;;;;0.00;0.00;;;;;;;22.81;47.80;98028.31;8417423;28;20230;-76
2022/10/10 14:26:44;;;;;;;0.00;0.00;;;;;;;22.87;46.20;98028.72;8417065;28;20242;-76
2022/10/10 14:30:46;;;;;;;0.00;0.00;;;;;;;22.99;43.87;98031.00;8416937;28;20521;-77
2022/10/10 14:34:50;;;;;;;0.00;0.00;;;;;;;23.03;44.10;98029.75;8417668;28;20348;-77
2022/10/10 14:38:54;;;;;;;0.00;0.00;;;;;;;23.05;43.22;98029.63;8416990;28;20231;-77
2022/10/10 14:42:57;;;;;;;0.00;0.00;;;;;;;22.89;42.73;98037.31;8417241;28;20243;-76
2022/10/10 14:46:59;;;;;;;0.00;0.00;;;;;;;22.86;41.81;98027.03;8416849;28;20498;-77
2022/10/10 14:51:02;;;;;;;0.00;0.00;;;;;;;22.89;41.77;98027.59;8416856;28;20258;-76
2022/10/10 14:55:26;;;;;;;0.00;0.00;;;;;;;22.76;41.22;98021.78;8416407;28;20250;-76
2022/10/10 14:59:29;;;;;;;0.00;0.00;;;;;;;22.74;41.91;98024.56;8414765;28;20230;-75
2022/10/10 15:03:51;;;;;;;0.00;0.00;;;;;;;22.52;41.94;98027.53;8416334;28;20298;-76
2022/10/10 15:07:54;;;;;;;0.00;0.00;;;;;;;22.48;41.88;98029.63;8416537;28;20235;-76
2022/10/10 15:11:58;;;;;;;0.00;0.00;;;;;;;22.31;42.61;98025.91;8415719;28;20226;-77
2022/10/10 15:16:01;;;;;;;0.00;0.00;;;;;;;22.12;42.78;98020.63;8415682;28;20537;-77
2022/10/10 15:20:05;;;;;;;0.00;0.00;;;;;;;21.89;43.63;98033.25;8416503;28;20514;-77
2022/10/10 15:24:08;;;;;;;0.00;0.00;;;;;;;21.60;44.65;98034.88;8415584;28;20582;-78
2022/10/10 15:28:12;;;;;;;0.00;0.00;;;;;;;21.40;45.35;98041.88;8416025;28;20287;-78
2022/10/10 15:32:15;;;;;;;0.00;0.00;;;;;;;21.21;45.65;98042.66;8415401;28;20289;-76
2022/10/10 15:36:18;;;;;;;0.00;0.00;;;;;;;21.03;45.76;98046.88;8415104;28;20518;-79
2022/10/10 15:40:23;;;;;;;0.00;0.00;;;;;;;20.85;46.59;98042.22;8415760;28;20540;-78
2022/10/10 15:44:27;;;;;;;0.00;0.00;;;;;;;20.73;46.88;98040.63;8415072;28;20223;-78
2022/10/10 15:48:31;;;;;;;0.00;0.00;;;;;;;20.61;48.42;98053.00;8414770;28;20506;-79
2022/10/10 15:52:34;;;;;;;0.00;0.00;;;;;;;20.46;49.63;98055.09;8414783;28;20409;-79
2022/10/10 15:56:37;;;;;;;0.00;0.00;;;;;;;20.35;49.69;98055.16;8414661;28;20238;-80
2022/10/10 16:00:42;;;;;;;0.00;0.00;;;;;;;20.28;49.82;98061.91;8414870;28;20244;-79
2022/10/10 16:04:45;;;;;;;0.00;0.00;;;;;;;20.15;50.04;98074.41;8414498;28;20241;-79
2022/10/10 16:08:48;;;;;;;0.00;0.00;;;;;;;19.99;51.78;98069.53;8414144;28;20290;-79
2022/10/10 16:13:06;;;;;;;0.00;0.00;;;;;;;19.89;51.63;98075.53;8413853;28;20230;-80
2022/10/10 16:17:10;;;;;;;0.00;0.00;;;;;;;19.81;51.68;98080.56;8414693;28;20292;-78
2022/10/10 16:21:15;;;;;;;0.00;0.00;;;;;;;19.70;52.35;98072.69;8414190;28;20231;-79
2022/10/10 16:25:17;;;;;;;0.00;0.00;;;;;;;19.57;52.33;98072.00;8415286;28;20263;-78
2022/10/10 16:29:25;;;;;;;0.00;0.00;;;;;;;19.43;52.44;98073.94;8413527;28;20240;-79
2022/10/10 16:33:31;;;;;;;0.00;0.00;;;;;;;19.56;57.45;98079.06;8412880;28;20288;-74
2022/10/10 16:37:34;;;;;;;0.00;0.00;;;;;;;19.54;56.50;98086.22;8412888;28;20453;-75
2022/10/10 16:41:36;;;;;;;0.00;0.00;;;;;;;19.49;56.74;98086.56;8412438;28;20240;-75
2022/10/10 16:45:55;;;;;;;0.00;0.00;;;;;;;19.21;52.42;98090.53;8413461;28;20228;-76
2022/10/10 16:49:59;;;;;;;0.00;0.00;;;;;;;19.09;53.11;98094.09;8413219;28;20536;-76
2022/10/10 16:54:03;;;;;;;0.00;0.00;;;;;;;18.95;53.71;98095.19;8411919;28;20369;-76
2022/10/10 16:58:06;;;;;;;0.00;0.00;;;;;;;18.81;54.15;98100.63;8412606;28;20224;-77
2022/10/10 17:02:10;;;;;;;0.00;0.00;;;;;;;18.68;54.19;98101.53;8413175;28;20232;-77
2022/10/10 17:06:17;;;;;;;0.00;0.00;;;;;;;18.61;54.68;98104.75;8413008;28;20526;-76
2022/10/10 17:10:20;;;;;;;0.00;0.00;;;;;;;18.52;55.46;98112.34;8412560;28;20241;-76
2022/10/10 17:14:23;;;;;;;0.00;0.00;;;;;;;18.38;55.88;98107.28;8412248;28;20244;-77
2022/10/10 17:18:26;;;;;;;0.00;0.00;;;;;;;18.30;56.32;98117.50;8412550;28;20238;-78
2022/10/10 17:22:30;;;;;;;0.00;0.00;;;;;;;18.15;55.72;98116.84;8414591;28;20238;-81
2022/10/10 17:26:33;;;;;;;0.00;0.00;;;;;;;18.00;56.51;98118.78;8418773;28;20232;-80
2022/10/10 17:30:42;;;;;;;0.00;0.00;;;;;;;18.06;56.87;98120.97;8418966;28;20246;-79
2022/10/10 17:34:44;;;;;;;0.00;0.00;;;;;;;18.00;56.76;98129.25;8418578;28;20238;-77
2022/10/10 17:38:49;;;;;;;0.00;0.00;;;;;;;17.94;56.73;98140.19;8418839;28;20231;-76
2022/10/10 17:42:52;;;;;;;0.00;0.00;;;;;;;17.83;57.20;98140.91;8418601;28;20237;-76
2022/10/10 17:46:55;;;;;;;0.00;0.00;;;;;;;17.82;57.27;98148.88;8418396;28;20529;-75
2022/10/10 17:50:58;;;;;;;0.00;0.00;;;;;;;17.75;57.79;98136.22;8418402;28;20257;-81
2022/10/10 17:55:02;;;;;;;0.00;0.00;;;;;;;17.68;57.92;98139.38;8418971;28;20289;-83
2022/10/10 17:59:05;;;;;;;0.00;0.00;;;;;;;17.55;58.15;98135.03;8420427;28;20392;-83
2022/10/10 18:03:09;;;;;;;0.00;0.00;;;;;;;17.55;58.02;98140.28;8419207;28;20230;-83
2022/10/10 18:07:12;;;;;;;0.00;0.00;;;;;;;17.51;58.33;98151.88;8418183;28;20223;-84
2022/10/10 18:11:18;;;;;;;0.00;0.00;;;;;;;17.46;58.41;98155.75;8418008;28;20238;-84
2022/10/10 18:15:21;;;;;;;0.00;0.00;;;;;;;17.92;62.51;98155.19;8417511;28;20242;-77
2022/10/10 18:19:24;;;;;;;0.00;0.00;;;;;;;18.07;60.06;98155.88;8417292;28;20250;-78
2022/10/10 18:23:27;;;;;;;0.00;0.00;;;;;;;17.58;57.50;98163.59;8417359;28;20262;-81
2022/10/10 18:27:31;;;;;;;0.00;0.00;;;;;;;17.39;57.92;98173.69;8417247;28;20235;-82
2022/10/10 18:31:35;;;;;;;0.00;0.00;;;;;;;17.28;58.45;98170.97;8416894;28;20266;-81
2022/10/10 18:35:40;;;;;;;0.00;0.00;;;;;;;17.20;58.07;98164.47;8416490;28;20398;-81
2022/10/10 18:39:43;;;;;;;0.00;0.00;;;;;;;17.06;58.35;98161.97;8416781;28;20245;-81
2022/10/10 18:43:48;;;;;;;0.00;0.00;;;;;;;17.01;57.89;98158.81;8416522;28;20233;-81
2022/10/10 18:47:50;;;;;;;0.00;0.00;;;;;;;16.84;58.75;98161.72;8416588;28;20226;-81
2022/10/10 18:51:53;;;;;;;0.00;0.00;;;;;;;16.84;58.39;98162.56;8416421;28;20234;-82
2022/10/10 18:55:56;;;;;;;0.00;0.00;;;;;;;16.70;59.09;98157.41;8416355;28;20257;-79
2022/10/10 19:00:00;;;;;;;0.00;0.00;;;;;;;16.75;59.03;98168.38;8416539;28;20241;-81
2022/10/10 19:04:04;;;;;;;0.00;0.00;;;;;;;16.69;59.03;98172.22;8416510;28;20227;-81
2022/10/10 19:08:08;;;;;;;0.00;0.00;;;;;;;16.59;59.05;98177.22;8415597;28;20257;-81
2022/10/10 19:12:11;;;;;;;0.10;0.10;;;;;;;16.57;59.01;98179.09;8415557;28;20234;-80
2022/10/10 19:16:15;;;;;;;0.03;0.03;;;;;;;16.56;59.26;98180.06;8415540;28;20235;-80